createdAt,value
2017-10-11T00:00:36.292Z,0
2017-10-11T00:01:36.863Z,0
2017-10-11T00:02:37.435Z,0
2017-10-11T00:03:38.006Z,0
2017-10-11T00:04:38.579Z,0
2017-10-11T00:05:39.150Z,0
2017-10-11T00:06:39.723Z,0
2017-10-11T00:07:40.295Z,0
2017-10-11T00:08:40.868Z,0
2017-10-11T00:09:41.441Z,0
2017-10-11T00:10:42.022Z,0
2017-10-11T00:11:42.595Z,0
2017-10-11T00:12:43.178Z,0
2017-10-11T00:13:43.752Z,0
2017-10-11T00:14:44.324Z,0
2017-10-11T00:15:44.897Z,0
2017-10-11T00:16:45.469Z,0
2017-10-11T00:17:46.042Z,0
2017-10-11T00:18:46.615Z,0
2017-10-11T00:19:47.188Z,0
2017-10-11T00:20:47.761Z,0
2017-10-11T00:21:48.345Z,0
2017-10-11T00:22:48.918Z,0
2017-10-11T00:23:49.501Z,0
2017-10-11T00:24:50.073Z,0
2017-10-11T00:25:50.652Z,0
2017-10-11T00:26:51.216Z,0
2017-10-11T00:27:51.788Z,0
2017-10-11T00:28:52.359Z,0
2017-10-11T00:29:52.932Z,0
2017-10-11T00:30:53.502Z,0
2017-10-11T00:31:54.074Z,0
2017-10-11T00:32:54.646Z,0
2017-10-11T00:33:55.217Z,0
2017-10-11T00:34:55.790Z,0
2017-10-11T00:35:56.364Z,0
2017-10-11T00:36:56.937Z,0
2017-10-11T00:37:57.509Z,0
2017-10-11T00:38:58.083Z,0
2017-10-11T00:39:58.655Z,0
2017-10-11T00:40:59.230Z,0
2017-10-11T00:41:59.813Z,0
2017-10-11T00:43:00.386Z,0
2017-10-11T00:44:00.960Z,0
2017-10-11T00:45:01.535Z,0
2017-10-11T00:46:02.112Z,0
2017-10-11T00:47:02.681Z,0
2017-10-11T00:48:03.255Z,0
2017-10-11T00:49:03.826Z,0
2017-10-11T00:50:04.398Z,0
2017-10-11T00:51:04.970Z,0
2017-10-11T00:52:05.542Z,0
2017-10-11T00:53:06.115Z,0
2017-10-11T00:54:06.686Z,0
2017-10-11T00:55:07.258Z,0
2017-10-11T00:56:07.831Z,0
2017-10-11T00:57:08.402Z,0
2017-10-11T00:58:08.974Z,0
2017-10-11T00:59:09.548Z,0
2017-10-11T01:00:10.121Z,0
2017-10-11T08:32:39.898Z,292
2017-10-11T08:33:40.474Z,292
2017-10-11T08:34:41.051Z,292
2017-10-11T08:35:41.629Z,292
2017-10-11T08:36:42.213Z,304
2017-10-11T08:37:42.783Z,316
2017-10-11T08:38:43.364Z,320
2017-10-11T08:39:43.937Z,324
2017-10-11T08:40:44.512Z,304
2017-10-11T08:41:45.089Z,264
2017-10-11T08:42:45.666Z,240
2017-10-11T08:43:46.242Z,212
2017-10-11T08:44:46.830Z,208
2017-10-11T08:45:47.405Z,200
2017-10-11T08:46:47.983Z,196
2017-10-11T08:47:48.558Z,208
2017-10-11T08:48:49.133Z,224
2017-10-11T08:49:49.714Z,240
2017-10-11T08:50:50.288Z,240
2017-10-11T08:51:50.875Z,260
2017-10-11T08:52:51.440Z,248
2017-10-11T08:53:52.031Z,256
2017-10-11T08:54:52.604Z,312
2017-10-11T08:55:53.179Z,348
2017-10-11T08:56:53.756Z,364
2017-10-11T08:57:54.334Z,376
2017-10-11T08:58:54.923Z,376
2017-10-11T08:59:55.500Z,380
2017-10-11T09:00:56.087Z,372
2017-10-11T09:01:56.666Z,376
2017-10-11T09:02:57.241Z,364
2017-10-11T09:03:57.817Z,372
2017-10-11T09:04:58.396Z,380
2017-10-11T09:05:58.971Z,384
2017-10-11T09:06:59.549Z,384
2017-10-11T09:08:00.124Z,384
2017-10-11T09:09:00.700Z,396
2017-10-11T09:10:01.277Z,412
2017-10-11T09:11:01.854Z,428
2017-10-11T09:12:02.431Z,440
2017-10-11T09:13:03.007Z,464
2017-10-11T09:14:03.583Z,480
2017-10-11T09:15:04.164Z,508
2017-10-11T09:16:04.739Z,544
2017-10-11T09:17:05.327Z,576
2017-10-11T09:18:05.916Z,576
2017-10-11T09:19:06.482Z,564
2017-10-11T09:20:07.058Z,564
2017-10-11T09:21:07.636Z,540
2017-10-11T09:22:08.213Z,480
2017-10-11T09:23:08.791Z,448
2017-10-11T09:24:09.369Z,444
2017-10-11T09:25:09.945Z,448
2017-10-11T09:26:10.522Z,456
2017-10-11T09:27:11.099Z,460
2017-10-11T09:28:11.676Z,460
2017-10-11T09:29:12.254Z,464
2017-10-11T09:30:12.831Z,444
2017-10-11T09:31:13.407Z,452
2017-10-11T09:32:13.985Z,456
2017-10-11T09:33:14.572Z,452
2017-10-11T09:34:15.147Z,440
2017-10-11T09:35:15.724Z,424
2017-10-11T09:36:16.300Z,432
2017-10-11T09:37:16.879Z,432
2017-10-11T09:38:17.456Z,412
2017-10-11T09:39:18.032Z,400
2017-10-11T09:40:18.612Z,384
2017-10-11T09:41:19.198Z,392
2017-10-11T09:42:19.776Z,404
2017-10-11T09:43:20.362Z,428
2017-10-11T09:44:20.939Z,408
2017-10-11T09:45:21.516Z,360
2017-10-11T09:46:22.094Z,344
2017-10-11T09:47:22.670Z,376
2017-10-11T09:48:23.257Z,420
2017-10-11T09:49:23.836Z,384
2017-10-11T09:50:24.412Z,376
2017-10-11T09:51:24.989Z,392
2017-10-11T09:52:25.567Z,368
2017-10-11T09:53:26.143Z,396
2017-10-11T09:54:26.720Z,368
2017-10-11T09:55:27.297Z,340
2017-10-11T09:56:27.873Z,304
2017-10-11T09:57:28.453Z,308
2017-10-11T09:58:29.028Z,328
2017-10-11T09:59:29.605Z,344
2017-10-11T10:00:30.185Z,288
2017-10-11T10:01:30.760Z,292
2017-10-11T10:02:31.338Z,280
2017-10-11T10:03:31.915Z,280
2017-10-11T10:04:32.499Z,316
2017-10-11T10:05:33.070Z,340
2017-10-11T10:06:33.647Z,308
2017-10-11T10:07:34.226Z,264
2017-10-11T10:08:34.800Z,256
2017-10-11T10:09:35.388Z,280
2017-10-11T10:10:35.964Z,284
2017-10-11T10:11:36.549Z,304
2017-10-11T10:12:37.131Z,312
2017-10-11T10:13:37.708Z,332
2017-10-11T10:14:38.286Z,356
2017-10-11T10:15:38.864Z,352
2017-10-11T10:16:39.440Z,396
2017-10-11T10:17:40.020Z,400
2017-10-11T10:18:40.594Z,432
2017-10-11T10:19:41.171Z,488
2017-10-11T10:20:41.748Z,516
2017-10-11T10:21:42.325Z,560
2017-10-11T10:22:42.903Z,548
2017-10-11T10:23:43.478Z,536
2017-10-11T10:24:44.055Z,512
2017-10-11T10:25:44.659Z,496
2017-10-11T10:26:45.220Z,464
2017-10-11T10:27:45.798Z,480
2017-10-11T10:28:46.375Z,492
2017-10-11T10:29:46.952Z,476
2017-10-11T10:30:47.539Z,488
2017-10-11T10:31:48.118Z,452
2017-10-11T10:32:48.694Z,452
2017-10-11T10:33:49.272Z,416
2017-10-11T10:34:49.859Z,324
2017-10-11T10:35:50.435Z,296
2017-10-11T10:36:51.011Z,292
2017-10-11T10:37:51.590Z,300
2017-10-11T10:38:52.165Z,312
2017-10-11T10:39:52.753Z,376
2017-10-11T10:40:53.331Z,408
2017-10-11T10:41:53.908Z,456
2017-10-11T10:42:54.485Z,516
2017-10-11T10:43:55.063Z,484
2017-10-11T10:44:55.640Z,468
2017-10-11T10:45:56.216Z,488
2017-10-11T10:46:56.792Z,544
2017-10-11T10:47:57.374Z,572
2017-10-11T10:48:57.959Z,576
2017-10-11T10:49:58.533Z,632
2017-10-11T10:50:59.113Z,636
2017-10-11T10:51:59.692Z,636
2017-10-11T10:53:00.281Z,624
2017-10-11T10:54:00.857Z,608
2017-10-11T10:55:01.434Z,592
2017-10-11T10:56:02.011Z,568
2017-10-11T10:57:02.600Z,560
2017-10-11T10:58:03.176Z,548
2017-10-11T10:59:03.756Z,528
2017-10-11T11:00:04.332Z,516
2017-10-11T11:01:04.909Z,516
2017-10-11T11:02:05.516Z,516
2017-10-11T11:03:06.089Z,496
2017-10-11T11:04:06.665Z,480
2017-10-11T11:05:07.244Z,472
2017-10-11T11:06:07.819Z,460
2017-10-11T11:07:08.396Z,460
2017-10-11T11:08:08.976Z,468
2017-10-11T11:09:09.553Z,476
2017-10-11T11:10:10.130Z,468
2017-10-11T11:11:10.709Z,452
2017-10-11T11:12:11.286Z,448
2017-10-11T11:13:11.863Z,460
2017-10-11T11:14:12.439Z,448
2017-10-11T11:15:13.023Z,436
2017-10-11T11:16:13.595Z,388
2017-10-11T11:17:14.172Z,380
2017-10-11T11:18:14.760Z,420
2017-10-11T11:19:15.339Z,444
2017-10-11T11:20:15.916Z,464
2017-10-11T11:21:16.493Z,476
2017-10-11T11:22:17.072Z,468
2017-10-11T11:23:17.648Z,488
2017-10-11T11:24:18.226Z,516
2017-10-11T11:25:18.805Z,528
2017-10-11T11:26:19.394Z,528
2017-10-11T11:27:19.971Z,532
2017-10-11T11:28:20.649Z,536
2017-10-11T11:29:21.229Z,532
2017-10-11T11:30:21.806Z,528
2017-10-11T11:31:22.383Z,520
2017-10-11T11:32:22.960Z,528
2017-10-11T11:33:23.538Z,516
2017-10-11T11:34:24.117Z,500
2017-10-11T11:35:24.694Z,472
2017-10-11T11:36:25.271Z,456
2017-10-11T11:37:25.847Z,444
2017-10-11T11:38:26.424Z,424
2017-10-11T11:39:27.003Z,404
2017-10-11T11:40:27.591Z,396
2017-10-11T11:41:28.169Z,376
2017-10-11T11:42:28.747Z,376
2017-10-11T11:43:29.324Z,376
2017-10-11T11:44:29.901Z,376
2017-10-11T11:45:30.480Z,372
2017-10-11T11:46:31.057Z,368
2017-10-11T11:47:31.635Z,380
2017-10-11T11:48:32.212Z,388
2017-10-11T11:49:32.792Z,388
2017-10-11T11:50:33.378Z,380
2017-10-11T11:51:33.970Z,372
2017-10-11T11:52:34.544Z,360
2017-10-11T11:53:35.121Z,368
2017-10-11T11:54:35.701Z,380
2017-10-11T11:55:36.278Z,372
2017-10-11T11:56:36.855Z,352
2017-10-11T11:57:37.433Z,312
2017-10-11T11:58:38.011Z,284
2017-10-11T11:59:38.590Z,292
2017-10-11T12:00:39.166Z,304
2017-10-11T12:01:39.754Z,336
2017-10-11T12:02:40.332Z,380
2017-10-11T12:03:40.920Z,440
2017-10-11T12:04:41.497Z,464
2017-10-11T12:05:42.074Z,456
2017-10-11T12:06:42.661Z,444
2017-10-11T12:07:43.238Z,416
2017-10-11T12:08:43.813Z,408
2017-10-11T12:09:44.394Z,420
2017-10-11T12:10:44.968Z,436
2017-10-11T12:11:45.550Z,476
2017-10-11T12:12:46.136Z,456
2017-10-11T12:13:46.713Z,448
2017-10-11T12:14:47.288Z,460
2017-10-11T12:15:47.865Z,452
2017-10-11T12:16:48.443Z,448
2017-10-11T12:17:49.023Z,444
2017-10-11T12:18:49.600Z,464
2017-10-11T12:19:50.176Z,508
2017-10-11T12:20:50.754Z,552
2017-10-11T12:21:51.337Z,584
2017-10-11T12:22:51.910Z,600
2017-10-11T12:23:52.487Z,600
2017-10-11T12:24:53.066Z,600
2017-10-11T12:25:53.644Z,592
2017-10-11T12:26:54.224Z,588
2017-10-11T12:27:54.811Z,576
2017-10-11T12:28:55.398Z,564
2017-10-11T12:29:55.977Z,564
2017-10-11T12:30:56.553Z,560
2017-10-11T12:31:57.131Z,548
2017-10-11T12:32:57.708Z,544
2017-10-11T12:33:58.538Z,528
2017-10-11T12:34:59.122Z,532
2017-10-11T12:35:59.695Z,532
2017-10-11T12:37:00.272Z,516
2017-10-11T12:38:00.852Z,512
2017-10-11T12:39:01.429Z,496
2017-10-11T12:40:02.006Z,500
2017-10-11T12:41:02.596Z,496
2017-10-11T12:42:03.175Z,484
2017-10-11T12:43:03.749Z,488
2017-10-11T12:44:04.327Z,484
2017-10-11T12:45:04.904Z,484
2017-10-11T12:46:05.484Z,480
2017-10-11T12:47:06.061Z,484
2017-10-11T12:48:06.638Z,492
2017-10-11T12:49:07.215Z,504
2017-10-11T12:50:07.793Z,504
2017-10-11T12:51:08.371Z,516
2017-10-11T12:52:08.948Z,516
2017-10-11T12:53:09.525Z,496
2017-10-11T12:54:10.105Z,508
2017-10-11T12:55:10.681Z,524
2017-10-11T12:56:11.259Z,520
2017-10-11T12:57:11.835Z,532
2017-10-11T12:58:12.414Z,528
2017-10-11T12:59:12.992Z,540
2017-10-11T13:00:13.570Z,548
2017-10-11T13:01:14.147Z,556
2017-10-11T13:02:14.726Z,532
2017-10-11T13:03:15.304Z,520
2017-10-11T13:04:15.930Z,516
2017-10-11T13:05:16.510Z,532
2017-10-11T13:06:17.113Z,544
2017-10-11T13:07:17.676Z,532
2017-10-11T13:08:18.255Z,536
2017-10-11T13:09:18.835Z,548
2017-10-11T13:10:19.412Z,516
2017-10-11T13:11:19.997Z,456
2017-10-11T13:12:20.579Z,392
2017-10-11T13:13:21.162Z,372
2017-10-11T13:14:21.758Z,384
2017-10-11T13:15:22.329Z,412
2017-10-11T13:16:22.906Z,480
2017-10-11T13:17:23.484Z,516
2017-10-11T13:18:24.063Z,524
2017-10-11T13:19:24.640Z,544
2017-10-11T13:20:25.228Z,540
2017-10-11T13:21:25.807Z,524
2017-10-11T13:22:26.384Z,516
2017-10-11T13:23:26.962Z,504
2017-10-11T13:24:27.545Z,484
2017-10-11T13:25:28.120Z,464
2017-10-11T13:26:28.707Z,460
2017-10-11T13:27:29.286Z,448
2017-10-11T13:28:29.862Z,440
2017-10-11T13:29:30.441Z,428
2017-10-11T13:30:31.019Z,424
2017-10-11T13:31:31.610Z,412
2017-10-11T13:32:32.186Z,404
2017-10-11T13:33:32.773Z,400
2017-10-11T13:34:33.352Z,392
2017-10-11T13:35:33.930Z,380
2017-10-11T13:36:34.508Z,388
2017-10-11T13:37:35.086Z,392
2017-10-11T13:38:35.665Z,384
2017-10-11T13:39:36.244Z,392
2017-10-11T13:40:36.822Z,376
2017-10-11T13:41:37.400Z,368
2017-10-11T13:42:37.979Z,356
2017-10-11T13:43:38.555Z,340
2017-10-11T13:44:39.134Z,308
2017-10-11T13:45:39.711Z,304
2017-10-11T13:46:40.290Z,268
2017-10-11T13:47:40.869Z,236
2017-10-11T13:48:41.446Z,292
2017-10-11T13:49:42.224Z,276
2017-10-11T13:50:42.802Z,232
2017-10-11T13:51:43.382Z,264
2017-10-11T13:52:43.955Z,240
2017-10-11T13:53:44.534Z,216
2017-10-11T13:54:45.122Z,228
2017-10-11T13:55:45.700Z,228
2017-10-11T13:56:46.277Z,232
2017-10-11T13:57:46.862Z,204
2017-10-11T13:58:47.433Z,216
2017-10-11T13:59:48.008Z,224
2017-10-11T14:00:48.586Z,264
2017-10-11T14:01:49.163Z,292
2017-10-11T14:02:49.742Z,324
2017-10-11T14:03:50.318Z,324
2017-10-11T14:04:50.896Z,340
2017-10-11T14:05:51.476Z,348
2017-10-11T14:06:52.056Z,360
2017-10-11T14:07:52.641Z,324
2017-10-11T14:08:53.219Z,328
2017-10-11T14:09:53.796Z,332
2017-10-11T14:10:54.374Z,328
2017-10-11T14:11:54.952Z,340
2017-10-11T14:12:55.530Z,344
2017-10-11T14:13:56.107Z,348
2017-10-11T14:14:56.697Z,348
2017-10-11T14:15:57.274Z,336
2017-10-11T14:16:57.851Z,324
2017-10-11T14:17:58.431Z,316
2017-10-11T14:18:59.007Z,312
2017-10-11T14:19:59.584Z,296
2017-10-11T14:21:00.161Z,312
2017-10-11T14:22:00.738Z,316
2017-10-11T14:23:01.316Z,320
2017-10-11T14:24:01.893Z,328
2017-10-11T14:25:02.471Z,332
2017-10-11T14:26:03.050Z,332
2017-10-11T14:27:03.644Z,328
2017-10-11T14:28:04.227Z,308
2017-10-11T14:29:04.803Z,300
2017-10-11T14:30:05.383Z,296
2017-10-11T14:31:05.959Z,284
2017-10-11T14:32:06.536Z,272
2017-10-11T14:33:07.114Z,272
2017-10-11T14:34:07.691Z,272
2017-10-11T14:35:08.270Z,268
2017-10-11T14:36:08.851Z,260
2017-10-11T14:37:09.423Z,256
2017-10-11T14:38:10.008Z,252
2017-10-11T14:39:10.578Z,244
2017-10-11T14:40:11.157Z,236
2017-10-11T14:41:11.732Z,220
2017-10-11T14:42:12.309Z,212
2017-10-11T14:43:12.887Z,212
2017-10-11T14:44:13.464Z,212
2017-10-11T14:45:14.041Z,208
2017-10-11T14:46:14.616Z,204
2017-10-11T14:47:15.192Z,200
2017-10-11T14:48:15.770Z,188
2017-10-11T14:49:16.347Z,188
2017-10-11T14:50:16.930Z,184
2017-10-11T14:51:17.501Z,176
2017-10-11T14:52:18.076Z,172
2017-10-11T14:53:18.655Z,168
2017-10-11T14:54:19.230Z,172
2017-10-11T14:55:19.808Z,172
2017-10-11T14:56:20.384Z,172
2017-10-11T14:57:20.974Z,164
2017-10-11T14:58:21.548Z,168
2017-10-11T14:59:22.124Z,168
2017-10-11T15:00:22.705Z,168
2017-10-11T15:01:23.278Z,164
2017-10-11T15:02:23.854Z,160
2017-10-11T15:03:24.432Z,156
2017-10-11T15:04:25.019Z,156
2017-10-11T15:05:25.694Z,152
2017-10-11T15:06:26.271Z,148
2017-10-11T15:07:26.853Z,144
2017-10-11T15:08:27.425Z,140
2017-10-11T15:09:28.000Z,136
2017-10-11T15:10:28.578Z,136
2017-10-11T15:11:29.152Z,136
2017-10-11T15:12:29.730Z,132
2017-10-11T15:13:30.305Z,132
2017-10-11T15:14:30.880Z,128
2017-10-11T15:15:31.456Z,128
2017-10-11T15:16:32.034Z,120
2017-10-11T15:17:32.612Z,124
2017-10-11T15:18:33.187Z,120
2017-10-11T15:19:33.763Z,120
2017-10-11T15:20:34.338Z,116
2017-10-11T15:21:34.915Z,108
2017-10-11T15:22:35.492Z,100
2017-10-11T15:23:36.066Z,96
2017-10-11T15:24:36.643Z,92
2017-10-11T15:25:37.217Z,84
2017-10-11T15:26:37.792Z,88
2017-10-11T15:27:38.376Z,84
2017-10-11T15:28:38.951Z,80
2017-10-11T15:29:39.526Z,76
2017-10-11T15:30:40.101Z,72
2017-10-11T15:31:40.682Z,72
2017-10-11T15:32:41.258Z,72
2017-10-11T15:33:41.833Z,72
2017-10-11T15:34:42.409Z,72
2017-10-11T15:35:42.983Z,76
2017-10-11T15:36:43.557Z,76
2017-10-11T15:37:44.131Z,76
2017-10-11T15:38:44.708Z,76
2017-10-11T15:39:45.289Z,76
2017-10-11T15:40:45.858Z,76
2017-10-11T15:41:46.434Z,80
2017-10-11T15:42:47.020Z,84
2017-10-11T15:43:47.597Z,76
2017-10-11T15:44:48.173Z,72
2017-10-11T15:45:48.747Z,72
2017-10-11T15:46:49.333Z,72
2017-10-11T15:47:49.916Z,72
2017-10-11T15:48:50.483Z,72
2017-10-11T15:49:51.069Z,68
2017-10-11T15:50:51.634Z,72
2017-10-11T15:51:52.209Z,68
2017-10-11T15:52:52.786Z,64
2017-10-11T15:53:53.364Z,64
2017-10-11T15:54:53.945Z,68
2017-10-11T15:55:54.531Z,64
2017-10-11T15:56:55.107Z,64
2017-10-11T15:57:55.681Z,64
2017-10-11T15:58:56.260Z,60
2017-10-11T15:59:56.832Z,64
2017-10-11T16:00:57.411Z,60
2017-10-11T16:01:57.984Z,56
2017-10-11T16:02:58.564Z,56
2017-10-11T16:03:59.133Z,56
2017-10-11T16:04:59.708Z,52
2017-10-11T16:06:00.283Z,52
2017-10-11T16:07:00.860Z,48
2017-10-11T16:08:01.436Z,44
2017-10-11T16:09:02.009Z,40
2017-10-11T16:10:02.584Z,36
2017-10-11T16:11:03.159Z,32
2017-10-11T16:12:03.733Z,32
2017-10-11T16:13:04.307Z,24
2017-10-11T16:14:04.886Z,24
2017-10-11T16:15:05.468Z,24
2017-10-11T16:16:06.104Z,24
2017-10-11T16:17:06.678Z,20
2017-10-11T16:18:07.255Z,20
2017-10-11T16:19:07.839Z,20
2017-10-11T16:20:08.414Z,16
2017-10-11T16:21:08.989Z,16
2017-10-11T16:22:09.565Z,16
2017-10-11T16:23:10.140Z,16
2017-10-11T16:24:10.716Z,12
2017-10-11T16:25:11.291Z,12
2017-10-11T16:26:11.865Z,12
2017-10-11T16:27:12.439Z,12
2017-10-11T16:28:13.013Z,8
2017-10-11T16:29:13.586Z,8
2017-10-11T16:30:14.162Z,12
2017-10-11T16:31:14.746Z,8
2017-10-11T16:32:15.319Z,8
2017-10-11T16:33:15.893Z,12
2017-10-11T16:34:16.466Z,8
2017-10-11T16:35:17.040Z,12
2017-10-11T16:36:17.617Z,12
2017-10-11T16:37:18.192Z,12
2017-10-11T16:38:18.767Z,8
2017-10-11T16:39:19.340Z,12
2017-10-11T16:40:19.914Z,8
2017-10-11T16:41:20.488Z,8
2017-10-11T16:42:21.063Z,8
2017-10-11T16:43:21.638Z,8
2017-10-11T16:44:22.208Z,4
2017-10-11T16:45:22.782Z,8
2017-10-11T16:46:23.356Z,4
2017-10-11T16:47:23.931Z,4
2017-10-11T16:48:24.506Z,4
2017-10-11T16:49:25.080Z,4
2017-10-11T16:50:25.653Z,4
2017-10-11T16:51:26.228Z,0
2017-10-11T16:52:26.819Z,4
2017-10-11T16:53:27.386Z,0
2017-10-11T16:54:27.962Z,4
2017-10-11T16:55:28.535Z,4
2017-10-11T16:56:29.108Z,0
2017-10-11T16:57:29.682Z,0
2017-10-11T16:58:30.255Z,0
2017-10-11T16:59:30.828Z,0
2017-10-11T17:00:31.401Z,0
2017-10-11T17:01:31.973Z,0
2017-10-11T17:02:32.549Z,0
2017-10-11T17:03:33.124Z,0
2017-10-11T17:04:33.697Z,0
2017-10-11T17:05:34.273Z,0
2017-10-11T17:06:34.845Z,0
2017-10-11T17:07:35.420Z,0
2017-10-11T17:08:35.992Z,0
2017-10-11T17:09:36.564Z,0
2017-10-11T17:10:37.139Z,0
2017-10-11T17:11:37.712Z,0
2017-10-11T17:12:38.286Z,0
2017-10-11T17:13:38.858Z,0
2017-10-11T17:14:39.429Z,0
2017-10-11T17:15:40.003Z,0
2017-10-11T17:16:40.580Z,0
2017-10-11T17:17:41.155Z,0
2017-10-11T17:18:41.729Z,0
2017-10-11T17:19:42.300Z,0
2017-10-11T17:20:42.873Z,0
2017-10-11T17:21:43.447Z,0
2017-10-11T17:22:44.031Z,0
2017-10-11T17:23:44.605Z,0
2017-10-11T17:24:45.179Z,0
2017-10-11T17:25:45.754Z,0
2017-10-11T17:26:46.376Z,0
2017-10-11T17:27:46.951Z,0
2017-10-11T17:28:47.527Z,0
2017-10-11T17:29:48.099Z,0
2017-10-11T17:30:48.675Z,0
2017-10-11T17:31:49.246Z,0
2017-10-11T17:32:49.823Z,0
2017-10-11T17:33:50.393Z,0
2017-10-11T17:34:50.966Z,0
2017-10-11T17:35:51.538Z,0
2017-10-11T17:36:52.162Z,0
2017-10-11T17:37:52.737Z,0
2017-10-11T17:38:53.310Z,0
2017-10-11T17:39:53.890Z,0
2017-10-11T17:40:54.458Z,0
2017-10-11T17:41:55.033Z,0
2017-10-11T17:42:55.606Z,0
2017-10-11T17:43:56.180Z,0
2017-10-11T17:44:56.753Z,0
2017-10-11T17:45:57.327Z,0
2017-10-11T17:46:57.902Z,0
2017-10-11T17:47:58.481Z,0
2017-10-11T17:48:59.051Z,0
2017-10-11T17:49:59.624Z,0
2017-10-11T17:51:00.208Z,0
2017-10-11T17:52:00.783Z,0
2017-10-11T17:53:01.357Z,0
2017-10-11T17:54:01.932Z,0
2017-10-11T17:55:02.505Z,0
2017-10-11T17:56:03.079Z,0
2017-10-11T17:57:03.653Z,0
2017-10-11T17:58:04.226Z,0
2017-10-11T17:59:04.807Z,0
2017-10-11T18:00:05.371Z,0
2017-10-11T18:01:05.945Z,0
2017-10-11T18:02:06.530Z,0
2017-10-11T18:03:07.108Z,0
2017-10-11T18:04:07.675Z,0
2017-10-11T18:05:08.260Z,0
2017-10-11T18:06:08.834Z,0
2017-10-11T18:07:09.407Z,0
2017-10-11T18:08:09.985Z,0
2017-10-11T18:09:10.554Z,0
2017-10-11T18:10:11.138Z,0
2017-10-11T18:11:11.718Z,0
2017-10-11T18:12:12.287Z,0
2017-10-11T18:13:12.872Z,0
2017-10-11T18:14:13.447Z,0
2017-10-11T18:15:14.020Z,0
2017-10-11T18:16:14.595Z,0
2017-10-11T18:17:15.167Z,0
2017-10-11T18:18:15.742Z,0
2017-10-11T18:19:16.317Z,0
2017-10-11T18:20:16.890Z,0
2017-10-11T18:21:17.470Z,0
2017-10-11T18:22:18.035Z,0
2017-10-11T18:23:18.609Z,0
2017-10-11T18:24:19.181Z,0
2017-10-11T18:25:19.778Z,0
2017-10-11T18:26:20.339Z,0
2017-10-11T18:27:20.913Z,0
2017-10-11T18:28:21.486Z,0
2017-10-11T18:29:22.060Z,0
2017-10-11T18:30:22.632Z,0
2017-10-11T18:31:23.206Z,0
2017-10-11T18:32:23.779Z,0
2017-10-11T18:33:24.359Z,0
2017-10-11T18:34:24.949Z,0
2017-10-11T18:35:25.513Z,0
2017-10-11T18:36:26.085Z,0
2017-10-11T18:37:26.659Z,0
2017-10-11T18:38:27.232Z,0
2017-10-11T18:39:27.805Z,0
2017-10-11T18:40:28.379Z,0
2017-10-11T18:41:28.963Z,0
2017-10-11T18:42:29.537Z,0
2017-10-11T18:43:30.109Z,0
2017-10-11T18:44:30.683Z,0
2017-10-11T18:45:31.256Z,0
2017-10-11T18:46:31.839Z,0
2017-10-11T18:47:32.412Z,0
2017-10-11T18:48:32.988Z,0
2017-10-11T18:49:33.558Z,0
2017-10-11T18:50:34.133Z,0
2017-10-11T18:51:34.706Z,0
2017-10-11T18:52:35.279Z,0
2017-10-11T18:53:35.857Z,0
2017-10-11T18:54:36.425Z,0
2017-10-11T18:55:36.999Z,0
2017-10-11T18:56:37.581Z,0
2017-10-11T18:57:38.157Z,0
2017-10-11T18:58:38.730Z,0
2017-10-11T18:59:39.303Z,0
2017-10-11T19:00:39.876Z,0
2017-10-11T19:01:40.448Z,0
2017-10-11T19:02:41.223Z,0
2017-10-11T19:03:41.797Z,0
2017-10-11T19:04:42.371Z,0
2017-10-11T19:05:42.946Z,0
2017-10-11T19:06:43.518Z,0
2017-10-11T19:07:44.093Z,0
2017-10-11T19:08:44.666Z,0
2017-10-11T19:09:45.249Z,0
2017-10-11T19:10:45.824Z,0
2017-10-11T19:11:46.398Z,0
2017-10-11T19:12:46.982Z,0
2017-10-11T19:13:47.546Z,0
2017-10-11T19:14:48.122Z,0
2017-10-11T19:15:48.698Z,0
2017-10-11T19:16:49.267Z,0
2017-10-11T19:17:49.851Z,0
2017-10-11T19:18:50.424Z,0
2017-10-11T19:19:50.998Z,0
2017-10-11T19:20:51.582Z,0
2017-10-11T19:21:52.147Z,0
2017-10-11T19:22:52.728Z,0
2017-10-11T19:23:53.313Z,0
2017-10-11T19:24:53.885Z,0
2017-10-11T19:25:54.460Z,0
2017-10-11T19:26:55.033Z,0
2017-10-11T19:27:55.608Z,0
2017-10-11T19:28:56.188Z,0
2017-10-11T19:29:56.767Z,0
2017-10-11T19:30:57.340Z,0
2017-10-11T19:31:57.914Z,0
2017-10-11T19:32:58.488Z,0
2017-10-11T19:33:59.062Z,0
2017-10-11T19:34:59.648Z,0
2017-10-11T19:36:00.220Z,0
2017-10-11T19:37:00.802Z,0
2017-10-11T19:38:01.385Z,0
2017-10-11T19:39:01.958Z,0
2017-10-11T19:40:02.531Z,0
2017-10-11T19:41:03.106Z,0
2017-10-11T19:42:03.674Z,0
2017-10-11T19:43:04.247Z,0
2017-10-11T19:44:04.820Z,0
2017-10-11T19:45:05.394Z,0
2017-10-11T19:46:05.968Z,0
2017-10-11T19:47:06.544Z,0
2017-10-11T19:48:07.117Z,0
2017-10-11T19:49:07.693Z,0
2017-10-11T19:50:08.279Z,0
2017-10-11T19:51:08.853Z,0
2017-10-11T19:52:09.436Z,0
2017-10-11T19:53:10.008Z,0
2017-10-11T19:54:10.581Z,0
2017-10-11T19:55:11.159Z,0
2017-10-11T19:56:11.728Z,0
2017-10-11T19:57:12.303Z,0
2017-10-11T19:58:12.879Z,0
2017-10-11T19:59:13.456Z,0
2017-10-11T20:00:14.028Z,0
2017-10-11T20:01:14.602Z,0
2017-10-11T20:02:15.176Z,0
2017-10-11T20:03:15.749Z,0
2017-10-11T20:04:16.322Z,0
2017-10-11T20:05:16.897Z,0
2017-10-11T20:06:17.471Z,0
2017-10-11T20:07:18.046Z,0
2017-10-11T20:08:18.625Z,0
2017-10-11T20:09:19.194Z,0
2017-10-11T20:10:19.768Z,0
2017-10-11T20:11:20.343Z,0
2017-10-11T20:12:20.917Z,0
2017-10-11T20:13:21.488Z,0
2017-10-11T20:14:22.061Z,0
2017-10-11T20:15:22.633Z,0
2017-10-11T20:16:23.209Z,0
2017-10-11T20:17:23.795Z,0
2017-10-11T20:18:24.367Z,0
2017-10-11T20:19:24.941Z,0
2017-10-11T20:20:25.513Z,0
2017-10-11T20:21:26.087Z,0
2017-10-11T20:22:26.659Z,0
2017-10-11T20:23:27.237Z,0
2017-10-11T20:24:27.810Z,0
2017-10-11T20:25:28.394Z,0
2017-10-11T20:26:28.968Z,0
2017-10-11T20:27:29.542Z,0
2017-10-11T20:28:30.117Z,0
2017-10-11T20:29:30.700Z,0
2017-10-11T20:30:31.278Z,0
2017-10-11T20:31:31.848Z,0
2017-10-11T20:32:32.424Z,0
2017-10-11T20:33:32.998Z,0
2017-10-11T20:34:33.580Z,0
2017-10-11T20:35:34.154Z,0
2017-10-11T20:36:34.728Z,0
2017-10-11T20:37:35.300Z,0
2017-10-11T20:38:35.875Z,0
2017-10-11T20:39:36.449Z,0
2017-10-11T20:40:37.023Z,0
2017-10-11T20:41:37.597Z,0
2017-10-11T20:42:38.170Z,0
2017-10-11T20:43:38.746Z,0
2017-10-11T20:44:39.318Z,0
2017-10-11T20:45:39.890Z,0
2017-10-11T20:46:40.463Z,0
2017-10-11T20:47:41.037Z,0
2017-10-11T20:48:41.610Z,0
2017-10-11T20:49:42.186Z,0
2017-10-11T20:50:42.760Z,0
2017-10-11T20:51:43.333Z,0
2017-10-11T20:52:43.918Z,0
2017-10-11T20:53:44.491Z,0
2017-10-11T20:54:45.076Z,0
2017-10-11T20:55:45.648Z,0
2017-10-11T20:56:46.221Z,0
2017-10-11T20:57:46.806Z,0
2017-10-11T20:58:47.380Z,0
2017-10-11T20:59:47.954Z,0
2017-10-11T21:00:48.528Z,0
2017-10-11T21:01:49.101Z,0
2017-10-11T21:02:49.686Z,0
2017-10-11T21:03:50.261Z,0
2017-10-11T21:04:50.834Z,0
2017-10-11T21:05:51.407Z,0
2017-10-11T21:06:51.996Z,0
2017-10-11T21:07:52.565Z,0
2017-10-11T21:08:53.141Z,0
2017-10-11T21:09:53.714Z,0
2017-10-11T21:10:54.289Z,0
2017-10-11T21:11:54.862Z,0
2017-10-11T21:12:55.435Z,0
2017-10-11T21:13:56.008Z,0
2017-10-11T21:14:56.581Z,0
2017-10-11T21:15:57.155Z,0
2017-10-11T21:16:57.727Z,0
2017-10-11T21:17:58.300Z,0
2017-10-11T21:18:58.873Z,0
2017-10-11T21:19:59.448Z,0
2017-10-11T21:21:00.024Z,0
2017-10-11T21:22:00.597Z,0
2017-10-11T21:23:01.170Z,0
2017-10-11T21:24:01.746Z,0
2017-10-11T21:25:02.318Z,0
2017-10-11T21:26:02.891Z,0
2017-10-11T21:27:03.465Z,0
2017-10-11T21:28:04.043Z,0
2017-10-11T21:29:04.610Z,0
2017-10-11T21:30:05.186Z,0
2017-10-11T21:31:05.760Z,0
2017-10-11T21:32:06.333Z,0
2017-10-11T21:33:06.908Z,0
2017-10-11T21:34:07.481Z,0
2017-10-11T21:35:08.056Z,0
2017-10-11T21:36:08.629Z,0
2017-10-11T21:37:09.201Z,0
2017-10-11T21:38:09.788Z,0
2017-10-11T21:39:10.360Z,0
2017-10-11T21:40:10.937Z,0
2017-10-11T21:41:11.507Z,0
2017-10-11T21:42:12.080Z,0
2017-10-11T21:43:12.653Z,0
2017-10-11T21:44:13.225Z,0
2017-10-11T21:45:13.800Z,0
2017-10-11T21:46:14.374Z,0
2017-10-11T21:47:14.948Z,0
2017-10-11T21:48:15.522Z,0
2017-10-11T21:49:16.097Z,0
2017-10-11T21:50:16.672Z,0
2017-10-11T21:51:17.245Z,0
2017-10-11T21:52:17.818Z,0
2017-10-11T21:53:18.392Z,0
2017-10-11T21:54:18.965Z,0